Terminal Aerodrome Forecast
Issued by NWS Jackson, KY

Home | Current Version | Previous Version | Text Only | Print | Product List | Glossary On
Versions: 1 2 3 4 5 6 7 8 9 10 11 12 13 14 15 16 17 18 19 20 21 22
443
FTUS43 KJKL 271727
TAFJKL
TAF
KJKL 271727Z 2718/2818 00000KT P6SM VCTS FEW014CB SCT035 BKN100
     FM271830 VRB03KT 6SM -SHRA VCTS FEW015CB BKN035 OVC100
     FM280100 VRB04KT 3SM SHRA VCTS SCT030CB OVC050
     FM280500 14004KT 5SM SHRA VCTS SCT020CB OVC035
     FM281200 VRB04KT P6SM VCTS FEW025CB BKN040=

USA.gov is the U.S. government's official web portal to all federal, state and local government web resources and services.